createdAt,value
2017-09-03T00:00:50.469Z,0
2017-09-03T00:01:52.205Z,0
2017-09-03T00:02:53.734Z,0
2017-09-03T00:03:57.510Z,0
2017-09-03T00:04:58.896Z,0
2017-09-03T00:06:01.767Z,0
2017-09-03T00:07:03.062Z,0
2017-09-03T00:08:04.633Z,0
2017-09-03T00:09:06.257Z,0
2017-09-03T00:10:07.854Z,0
2017-09-03T00:11:10.828Z,0
2017-09-03T00:12:12.357Z,0
2017-09-03T00:13:14.120Z,0
2017-09-03T00:14:15.877Z,0
2017-09-03T00:15:17.275Z,0
2017-09-03T00:16:18.708Z,0
2017-09-03T00:17:20.115Z,0
2017-09-03T00:18:21.652Z,0
2017-09-03T00:19:23.173Z,0
2017-09-03T00:20:25.044Z,0
2017-09-03T00:21:27.610Z,0
2017-09-03T00:22:28.981Z,0
2017-09-03T00:23:30.359Z,0
2017-09-03T00:24:31.728Z,0
2017-09-03T00:25:33.095Z,0
2017-09-03T00:26:34.496Z,0
2017-09-03T00:27:36.014Z,0
2017-09-03T00:28:38.713Z,0
2017-09-03T00:29:40.123Z,0
2017-09-03T00:30:41.498Z,0
2017-09-03T00:31:42.867Z,0
2017-09-03T00:32:44.237Z,0
2017-09-03T00:33:45.612Z,0
2017-09-03T00:34:46.982Z,0
2017-09-03T00:35:48.642Z,0
2017-09-03T00:36:50.015Z,0
2017-09-03T00:37:51.389Z,0
2017-09-03T00:38:52.787Z,0
2017-09-03T00:39:54.158Z,0
2017-09-03T00:40:55.531Z,0
2017-09-03T00:41:56.918Z,0
2017-09-03T00:42:58.291Z,0
2017-09-03T00:43:59.669Z,0
2017-09-03T00:45:01.067Z,0
2017-09-03T00:46:02.438Z,0
2017-09-03T00:47:03.812Z,0
2017-09-03T00:48:05.181Z,0
2017-09-03T00:49:06.554Z,0
2017-09-03T00:50:07.930Z,0
2017-09-03T00:51:09.339Z,0
2017-09-03T00:52:10.705Z,0
2017-09-03T00:53:12.081Z,0
2017-09-03T00:54:13.454Z,0
2017-09-03T00:55:14.825Z,0
2017-09-03T00:56:16.194Z,0
2017-09-03T00:57:17.568Z,0
2017-09-03T00:58:18.941Z,0
2017-09-03T00:59:20.409Z,0
2017-09-03T01:00:21.777Z,0
2017-09-03T01:01:23.150Z,0
2017-09-03T01:02:24.523Z,0
2017-09-03T01:03:25.894Z,0
2017-09-03T01:04:27.267Z,0
2017-09-03T01:05:28.651Z,0
2017-09-03T01:06:30.024Z,0
2017-09-03T01:07:31.363Z,0
2017-09-03T01:08:32.728Z,0
2017-09-03T01:09:34.131Z,0
2017-09-03T01:10:35.505Z,0
2017-09-03T01:11:36.879Z,0
2017-09-03T01:12:38.256Z,0
2017-09-03T01:13:39.623Z,0
2017-09-03T01:14:40.995Z,0
2017-09-03T01:15:42.368Z,0
2017-09-03T01:16:43.741Z,0
2017-09-03T01:17:45.108Z,0
2017-09-03T01:18:46.479Z,0
2017-09-03T01:19:47.858Z,0
2017-09-03T01:20:49.249Z,0
2017-09-03T01:21:50.619Z,0
2017-09-03T01:22:52.005Z,0
2017-09-03T01:23:53.378Z,0
2017-09-03T01:24:54.776Z,0
2017-09-03T01:25:56.145Z,0
2017-09-03T01:26:57.519Z,0
2017-09-03T01:27:58.938Z,0
2017-09-03T01:29:00.331Z,0
2017-09-03T01:30:01.695Z,0
2017-09-03T01:31:03.069Z,0
2017-09-03T01:32:04.454Z,0
2017-09-03T01:33:05.830Z,0
2017-09-03T01:34:07.205Z,0
2017-09-03T01:35:08.605Z,0
2017-09-03T01:36:09.976Z,0
2017-09-03T01:37:11.346Z,0
2017-09-03T01:38:12.725Z,0
2017-09-03T01:39:14.093Z,0
2017-09-03T01:40:15.458Z,0
2017-09-03T01:41:16.830Z,0
2017-09-03T01:42:18.203Z,0
2017-09-03T01:43:19.570Z,0
2017-09-03T01:44:20.903Z,0
2017-09-03T01:45:22.298Z,0
2017-09-03T01:46:23.645Z,0
2017-09-03T01:47:25.018Z,0
2017-09-03T01:48:26.395Z,0
2017-09-03T01:49:27.763Z,0
2017-09-03T01:50:29.134Z,0
2017-09-03T01:51:30.503Z,0
2017-09-03T01:52:31.903Z,0
2017-09-03T01:53:33.273Z,0
2017-09-03T01:54:34.652Z,0
2017-09-03T01:55:36.011Z,0
2017-09-03T01:56:37.408Z,0
2017-09-03T01:57:38.802Z,0
2017-09-03T01:58:40.172Z,0
2017-09-03T01:59:42.475Z,0
2017-09-03T02:00:43.867Z,0
2017-09-03T02:01:45.286Z,0
2017-09-03T02:02:46.654Z,0
2017-09-03T02:03:48.022Z,0
2017-09-03T02:04:49.416Z,0
2017-09-03T02:05:50.789Z,0
2017-09-03T02:06:52.345Z,0
2017-09-03T02:07:53.714Z,0
2017-09-03T02:08:56.756Z,0
2017-09-03T02:09:58.085Z,0
2017-09-03T02:10:59.454Z,0
2017-09-03T02:12:00.832Z,0
2017-09-03T02:13:02.237Z,0
2017-09-03T02:14:03.611Z,0
2017-09-03T02:15:04.995Z,0
2017-09-03T02:16:06.366Z,0
2017-09-03T02:17:07.737Z,0
2017-09-03T02:18:09.107Z,0
2017-09-03T02:19:10.481Z,0
2017-09-03T02:20:12.004Z,0
2017-09-03T02:21:13.376Z,0
2017-09-03T02:22:14.745Z,0
2017-09-03T02:23:16.122Z,0
2017-09-03T02:24:17.493Z,0
2017-09-03T02:25:18.866Z,0
2017-09-03T02:26:20.257Z,0
2017-09-03T02:27:21.630Z,0
2017-09-03T02:28:23.003Z,0
2017-09-03T02:29:24.423Z,0
2017-09-03T02:30:25.805Z,0
2017-09-03T02:31:27.198Z,0
2017-09-03T02:32:28.568Z,0
2017-09-03T02:33:29.955Z,0
2017-09-03T02:34:31.324Z,0
2017-09-03T02:35:32.690Z,0
2017-09-03T02:36:34.147Z,0
2017-09-03T02:37:35.531Z,0
2017-09-03T02:38:36.904Z,0
2017-09-03T02:39:38.339Z,0
2017-09-03T02:40:39.706Z,0
2017-09-03T02:41:41.076Z,0
2017-09-03T02:42:42.449Z,0
2017-09-03T02:43:43.821Z,0
2017-09-03T02:44:45.214Z,0
2017-09-03T02:45:46.566Z,0
2017-09-03T02:46:47.936Z,0
2017-09-03T02:47:49.307Z,0
2017-09-03T02:48:50.682Z,0
2017-09-03T02:49:52.057Z,0
2017-09-03T02:50:53.427Z,0
2017-09-03T02:51:54.864Z,0
2017-09-03T02:52:56.233Z,0
2017-09-03T02:53:57.603Z,0
2017-09-03T02:54:58.974Z,0
2017-09-03T02:56:00.346Z,0
2017-09-03T02:57:01.715Z,0
2017-09-03T02:58:03.088Z,0
2017-09-03T02:59:04.458Z,0
2017-09-03T03:00:05.855Z,0
2017-09-03T03:01:07.223Z,0
2017-09-03T03:02:08.595Z,0
2017-09-03T03:03:09.969Z,0
2017-09-03T03:04:11.346Z,0
2017-09-03T03:05:12.717Z,0
2017-09-03T03:06:14.090Z,0
2017-09-03T03:07:15.462Z,0
2017-09-03T03:08:16.831Z,0
2017-09-03T03:09:18.207Z,0
2017-09-03T03:10:19.576Z,0
2017-09-03T03:11:20.949Z,0
2017-09-03T03:12:22.320Z,0
2017-09-03T03:13:23.689Z,0
2017-09-03T03:14:25.060Z,0
2017-09-03T03:15:26.429Z,0
2017-09-03T03:16:27.800Z,0
2017-09-03T03:17:29.171Z,0
2017-09-03T03:18:30.579Z,0
2017-09-03T03:19:31.953Z,0
2017-09-03T03:20:33.340Z,0
2017-09-03T03:21:34.715Z,0
2017-09-03T03:22:36.085Z,0
2017-09-03T03:23:37.454Z,0
2017-09-03T03:24:38.822Z,0
2017-09-03T03:25:40.191Z,0
2017-09-03T03:26:41.564Z,0
2017-09-03T03:27:42.935Z,0
2017-09-03T03:28:44.307Z,0
2017-09-03T03:29:45.712Z,0
2017-09-03T03:30:47.082Z,0
2017-09-03T03:31:48.449Z,0
2017-09-03T03:32:49.821Z,0
2017-09-03T03:33:51.191Z,0
2017-09-03T03:34:52.562Z,0
2017-09-03T03:35:53.936Z,0
2017-09-03T03:36:55.303Z,0
2017-09-03T03:37:56.685Z,0
2017-09-03T03:38:58.055Z,0
2017-09-03T03:39:59.460Z,0
2017-09-03T03:41:00.835Z,0
2017-09-03T03:42:02.206Z,0
2017-09-03T03:43:03.583Z,0
2017-09-03T03:44:04.962Z,0
2017-09-03T03:45:06.328Z,0
2017-09-03T03:46:07.727Z,0
2017-09-03T03:47:09.163Z,0
2017-09-03T03:48:10.495Z,0
2017-09-03T03:49:11.866Z,0
2017-09-03T03:50:13.241Z,0
2017-09-03T03:51:14.623Z,0
2017-09-03T03:52:16.023Z,0
2017-09-03T03:53:17.393Z,0
2017-09-03T03:54:18.766Z,0
2017-09-03T03:55:20.138Z,0
2017-09-03T03:56:21.522Z,0
2017-09-03T03:57:22.892Z,0
2017-09-03T03:58:24.261Z,0
2017-09-03T03:59:25.636Z,0
2017-09-03T04:00:27.012Z,0
2017-09-03T04:01:28.380Z,0
2017-09-03T04:02:29.751Z,0
2017-09-03T04:03:31.120Z,0
2017-09-03T04:04:32.494Z,0
2017-09-03T04:05:33.879Z,0
2017-09-03T04:06:35.241Z,0
2017-09-03T04:07:36.614Z,0
2017-09-03T04:08:37.984Z,0
2017-09-03T04:09:39.357Z,0
2017-09-03T04:10:40.729Z,0
2017-09-03T04:11:42.099Z,0
2017-09-03T04:12:43.471Z,0
2017-09-03T04:13:44.838Z,0
2017-09-03T04:14:46.216Z,0
2017-09-03T04:15:47.587Z,0
2017-09-03T04:16:48.960Z,0
2017-09-03T04:17:50.332Z,0
2017-09-03T04:18:51.699Z,0
2017-09-03T04:19:53.071Z,0
2017-09-03T04:20:54.439Z,0
2017-09-03T04:21:55.825Z,0
2017-09-03T04:22:57.208Z,0
2017-09-03T04:23:58.582Z,0
2017-09-03T04:24:59.952Z,0
2017-09-03T04:26:01.322Z,0
2017-09-03T04:27:02.691Z,0
2017-09-03T04:28:04.022Z,0
2017-09-03T04:29:05.406Z,0
2017-09-03T04:30:06.777Z,0
2017-09-03T04:31:08.150Z,0
2017-09-03T04:32:09.549Z,0
2017-09-03T04:33:10.937Z,0
2017-09-03T04:34:12.324Z,0
2017-09-03T04:35:13.699Z,0
2017-09-03T04:36:15.060Z,0
2017-09-03T04:37:16.470Z,0
2017-09-03T04:38:17.842Z,0
2017-09-03T04:39:19.212Z,0
2017-09-03T04:40:20.582Z,0
2017-09-03T04:41:21.980Z,0
2017-09-03T04:42:23.348Z,0
2017-09-03T04:43:24.718Z,0
2017-09-03T04:44:26.093Z,0
2017-09-03T04:45:27.464Z,0
2017-09-03T04:46:28.836Z,0
2017-09-03T04:47:30.324Z,0
2017-09-03T04:48:31.694Z,0
2017-09-03T04:49:33.064Z,0
2017-09-03T04:50:34.441Z,0
2017-09-03T04:51:35.812Z,0
2017-09-03T04:52:37.214Z,0
2017-09-03T04:53:38.587Z,0
2017-09-03T04:54:39.957Z,0
2017-09-03T04:55:41.333Z,0
2017-09-03T04:56:42.703Z,0
2017-09-03T04:57:44.073Z,0
2017-09-03T04:58:45.444Z,0
2017-09-03T04:59:46.816Z,0
2017-09-03T05:00:48.190Z,0
2017-09-03T05:01:49.574Z,0
2017-09-03T05:02:50.942Z,0
2017-09-03T05:03:52.320Z,5
2017-09-03T05:04:53.698Z,5
2017-09-03T05:05:55.068Z,5
2017-09-03T05:06:56.481Z,5
2017-09-03T05:07:57.858Z,5
2017-09-03T05:08:59.231Z,5
2017-09-03T05:10:00.606Z,5
2017-09-03T05:11:02.009Z,5
2017-09-03T05:12:03.380Z,5
2017-09-03T05:13:04.754Z,5
2017-09-03T05:14:06.126Z,5
2017-09-03T05:15:07.498Z,5
2017-09-03T05:16:08.894Z,5
2017-09-03T05:17:10.316Z,5
2017-09-03T05:18:11.682Z,5
2017-09-03T05:19:13.055Z,5
2017-09-03T05:20:14.424Z,5
2017-09-03T05:21:15.796Z,5
2017-09-03T05:22:17.168Z,5
2017-09-03T05:23:18.579Z,5
2017-09-03T05:24:19.967Z,5
2017-09-03T05:25:21.336Z,5
2017-09-03T05:26:22.706Z,5
2017-09-03T05:27:24.103Z,5
2017-09-03T05:28:25.477Z,5
2017-09-03T05:29:26.849Z,5
2017-09-03T05:30:28.223Z,5
2017-09-03T05:31:29.594Z,5
2017-09-03T05:32:30.964Z,5
2017-09-03T05:33:32.335Z,5
2017-09-03T05:34:33.708Z,5
2017-09-03T05:35:35.082Z,5
2017-09-03T05:36:36.454Z,5
2017-09-03T05:37:37.830Z,11
2017-09-03T05:38:39.201Z,11
2017-09-03T05:39:40.570Z,11
2017-09-03T05:40:41.946Z,11
2017-09-03T05:41:43.318Z,11
2017-09-03T05:42:44.692Z,11
2017-09-03T05:43:46.064Z,11
2017-09-03T05:44:47.465Z,11
2017-09-03T05:45:48.838Z,11
2017-09-03T05:46:50.207Z,11
2017-09-03T05:47:51.580Z,11
2017-09-03T05:48:52.955Z,11
2017-09-03T05:49:54.334Z,11
2017-09-03T05:50:55.709Z,11
2017-09-03T05:51:57.114Z,11
2017-09-03T05:52:58.510Z,11
2017-09-03T05:53:59.890Z,11
2017-09-03T05:55:01.272Z,11
2017-09-03T05:56:02.670Z,11
2017-09-03T05:57:04.051Z,11
2017-09-03T05:58:05.430Z,11
2017-09-03T05:59:06.807Z,11
2017-09-03T06:00:08.173Z,11
2017-09-03T06:01:09.544Z,11
2017-09-03T06:02:11.085Z,16
2017-09-03T06:03:12.462Z,16
2017-09-03T06:04:13.836Z,16
2017-09-03T06:05:15.215Z,16
2017-09-03T06:06:16.588Z,16
2017-09-03T06:07:17.990Z,16
2017-09-03T06:08:19.361Z,16
2017-09-03T06:09:21.127Z,16
2017-09-03T06:10:22.511Z,16
2017-09-03T06:11:23.880Z,16
2017-09-03T06:12:25.269Z,16
2017-09-03T06:13:26.647Z,16
2017-09-03T06:14:28.020Z,16
2017-09-03T06:15:29.419Z,16
2017-09-03T06:16:30.784Z,16
2017-09-03T06:17:32.160Z,16
2017-09-03T06:18:33.534Z,16
2017-09-03T06:19:34.911Z,16
2017-09-03T06:20:36.284Z,16
2017-09-03T06:21:39.218Z,16
2017-09-03T06:22:40.610Z,16
2017-09-03T06:23:42.027Z,16
2017-09-03T06:24:43.419Z,16
2017-09-03T06:25:44.794Z,16
2017-09-03T06:26:46.171Z,16
2017-09-03T06:27:47.545Z,16
2017-09-03T06:28:48.914Z,16
2017-09-03T06:29:50.293Z,16
2017-09-03T06:30:51.667Z,16
2017-09-03T06:31:53.069Z,16
2017-09-03T06:32:54.453Z,16
2017-09-03T06:33:55.936Z,16
2017-09-03T06:34:57.312Z,16
2017-09-03T06:35:58.713Z,16
2017-09-03T06:37:00.093Z,16
2017-09-03T06:38:01.467Z,16
2017-09-03T06:39:02.864Z,16
2017-09-03T06:40:04.247Z,16
2017-09-03T06:41:05.625Z,16
2017-09-03T06:42:07.029Z,16
2017-09-03T06:43:08.402Z,16
2017-09-03T06:44:09.772Z,16
2017-09-03T06:45:11.151Z,16
2017-09-03T06:46:12.590Z,16
2017-09-03T06:47:13.967Z,22
2017-09-03T06:48:15.341Z,22
2017-09-03T06:49:16.715Z,22
2017-09-03T06:50:18.093Z,22
2017-09-03T06:51:19.472Z,22
2017-09-03T06:52:20.843Z,22
2017-09-03T06:53:22.220Z,22
2017-09-03T06:54:23.596Z,22
2017-09-03T06:55:24.972Z,22
2017-09-03T06:56:26.350Z,22
2017-09-03T06:57:27.727Z,22
2017-09-03T06:58:29.131Z,22
2017-09-03T06:59:30.554Z,22
2017-09-03T07:00:31.929Z,22
2017-09-03T07:01:33.339Z,22
2017-09-03T07:02:35.329Z,22
2017-09-03T07:03:36.590Z,22
2017-09-03T07:04:37.965Z,22
2017-09-03T07:05:39.343Z,22
2017-09-03T07:06:40.722Z,22
2017-09-03T07:07:42.098Z,22
2017-09-03T07:08:43.474Z,22
2017-09-03T07:09:44.850Z,22
2017-09-03T07:10:46.230Z,22
2017-09-03T07:11:47.606Z,22
2017-09-03T07:12:48.986Z,22
2017-09-03T07:13:50.409Z,22
2017-09-03T07:14:51.772Z,28
2017-09-03T07:15:53.169Z,28
2017-09-03T07:16:54.540Z,28
2017-09-03T07:17:55.919Z,28
2017-09-03T07:18:57.290Z,28
2017-09-03T07:19:58.663Z,28
2017-09-03T07:21:00.039Z,28
2017-09-03T07:22:01.416Z,28
2017-09-03T07:23:02.793Z,28
2017-09-03T07:24:04.171Z,28
2017-09-03T07:25:05.581Z,28
2017-09-03T07:26:06.956Z,28
2017-09-03T07:27:08.331Z,33
2017-09-03T07:28:09.706Z,33
2017-09-03T07:29:11.083Z,33
2017-09-03T07:30:12.460Z,33
2017-09-03T07:31:13.835Z,33
2017-09-03T07:32:15.209Z,33
2017-09-03T07:33:16.584Z,33
2017-09-03T07:34:17.961Z,39
2017-09-03T07:35:19.339Z,39
2017-09-03T07:36:20.718Z,39
2017-09-03T07:37:22.096Z,45
2017-09-03T07:38:23.476Z,45
2017-09-03T07:39:24.859Z,45
2017-09-03T07:40:26.240Z,45
2017-09-03T07:41:27.636Z,45
2017-09-03T07:42:29.011Z,45
2017-09-03T07:43:31.076Z,45
2017-09-03T07:44:32.449Z,45
2017-09-03T07:45:33.831Z,45
2017-09-03T07:46:35.235Z,45
2017-09-03T07:47:36.605Z,45
2017-09-03T07:48:37.982Z,45
2017-09-03T07:49:39.361Z,45
2017-09-03T07:50:40.773Z,45
2017-09-03T07:51:42.150Z,45
2017-09-03T07:52:43.529Z,45
2017-09-03T07:53:44.911Z,45
2017-09-03T07:54:46.317Z,50
2017-09-03T07:55:47.698Z,50
2017-09-03T07:56:49.076Z,50
2017-09-03T07:57:50.455Z,50
2017-09-03T07:58:51.866Z,50
2017-09-03T07:59:53.249Z,45
2017-09-03T08:00:54.632Z,50
2017-09-03T08:01:56.010Z,45
2017-09-03T08:02:57.401Z,50
2017-09-03T08:03:58.809Z,45
2017-09-03T08:05:00.190Z,39
2017-09-03T08:06:01.569Z,45
2017-09-03T08:07:02.950Z,45
2017-09-03T08:08:04.330Z,45
2017-09-03T08:09:05.713Z,45
2017-09-03T08:10:07.093Z,39
2017-09-03T08:11:08.505Z,50
2017-09-03T08:12:09.884Z,45
2017-09-03T08:13:11.262Z,56
2017-09-03T08:14:12.645Z,56
2017-09-03T08:15:14.029Z,56
2017-09-03T08:16:15.408Z,56
2017-09-03T08:17:16.789Z,56
2017-09-03T08:18:18.161Z,50
2017-09-03T08:19:19.550Z,50
2017-09-03T08:20:20.894Z,50
2017-09-03T08:21:22.316Z,45
2017-09-03T08:22:23.702Z,50
2017-09-03T08:23:25.081Z,50
2017-09-03T08:24:26.477Z,50
2017-09-03T08:25:27.865Z,56
2017-09-03T08:26:29.250Z,56
2017-09-03T08:27:30.631Z,56
2017-09-03T08:28:32.221Z,56
2017-09-03T08:29:33.599Z,45
2017-09-03T08:30:34.982Z,45
2017-09-03T08:31:36.362Z,45
2017-09-03T08:32:37.740Z,45
2017-09-03T08:33:39.154Z,45
2017-09-03T08:34:40.536Z,45
2017-09-03T08:35:41.952Z,50
2017-09-03T08:36:43.333Z,50
2017-09-03T08:37:44.713Z,50
2017-09-03T08:38:46.126Z,45
2017-09-03T08:39:47.503Z,45
2017-09-03T08:40:48.851Z,45
2017-09-03T08:41:50.232Z,50
2017-09-03T08:42:51.614Z,56
2017-09-03T08:43:53.000Z,50
2017-09-03T08:44:54.378Z,61
2017-09-03T08:45:55.755Z,61
2017-09-03T08:46:57.136Z,61
2017-09-03T08:47:58.484Z,61
2017-09-03T08:48:59.867Z,56
2017-09-03T08:50:01.256Z,56
2017-09-03T08:51:02.654Z,56
2017-09-03T08:52:04.070Z,56
2017-09-03T08:53:05.482Z,56
2017-09-03T08:54:06.857Z,56
2017-09-03T08:55:08.240Z,56
2017-09-03T08:56:09.580Z,56
2017-09-03T08:57:10.968Z,56
2017-09-03T08:58:12.350Z,56
2017-09-03T08:59:13.732Z,56
2017-09-03T09:00:15.110Z,56
2017-09-03T09:01:16.487Z,56
2017-09-03T09:02:17.872Z,61
2017-09-03T09:03:19.253Z,67
2017-09-03T09:04:20.652Z,67
2017-09-03T09:05:22.039Z,67
2017-09-03T09:06:23.423Z,61
2017-09-03T09:07:24.807Z,56
2017-09-03T09:08:26.190Z,67
2017-09-03T09:09:27.574Z,73
2017-09-03T09:10:28.959Z,73
2017-09-03T09:11:30.345Z,61
2017-09-03T09:12:31.728Z,67
2017-09-03T09:13:33.114Z,67
2017-09-03T09:14:34.494Z,73
2017-09-03T09:15:35.875Z,84
2017-09-03T09:16:37.254Z,56
2017-09-03T09:17:38.642Z,67
2017-09-03T09:18:40.043Z,45
2017-09-03T09:19:41.423Z,39
2017-09-03T09:20:42.803Z,39
2017-09-03T09:21:44.195Z,39
2017-09-03T09:22:45.588Z,33
2017-09-03T09:23:46.969Z,33
2017-09-03T09:24:48.350Z,33
2017-09-03T09:25:49.780Z,33
2017-09-03T09:26:51.131Z,33
2017-09-03T09:27:52.508Z,33
2017-09-03T09:28:53.889Z,33
2017-09-03T09:29:55.263Z,33
2017-09-03T09:30:56.666Z,67
2017-09-03T09:31:58.039Z,39
2017-09-03T09:32:59.423Z,39
2017-09-03T09:34:00.802Z,33
2017-09-03T09:35:02.182Z,33
2017-09-03T09:36:03.565Z,33
2017-09-03T09:37:04.944Z,33
2017-09-03T09:38:06.324Z,33
2017-09-03T09:39:07.708Z,28
2017-09-03T09:40:09.091Z,33
2017-09-03T09:41:10.469Z,33
2017-09-03T09:42:11.874Z,33
2017-09-03T09:43:13.907Z,33
2017-09-03T09:44:15.291Z,33
2017-09-03T09:45:16.696Z,78
2017-09-03T09:46:18.091Z,84
2017-09-03T09:47:19.474Z,90
2017-09-03T09:48:20.863Z,84
2017-09-03T09:49:22.451Z,90
2017-09-03T09:50:23.838Z,95
2017-09-03T09:51:25.225Z,90
2017-09-03T09:52:26.603Z,61
2017-09-03T09:53:27.984Z,56
2017-09-03T09:54:29.371Z,56
2017-09-03T09:55:30.805Z,78
2017-09-03T09:56:32.188Z,84
2017-09-03T09:57:33.573Z,90
2017-09-03T09:58:34.956Z,84
2017-09-03T09:59:36.341Z,90
2017-09-03T10:00:37.723Z,56
2017-09-03T10:01:39.104Z,50
2017-09-03T10:02:40.484Z,50
2017-09-03T10:03:41.865Z,50
2017-09-03T10:04:43.243Z,50
2017-09-03T10:05:44.630Z,50
2017-09-03T10:06:46.010Z,56
2017-09-03T10:07:47.394Z,56
2017-09-03T10:08:48.782Z,56
2017-09-03T10:09:50.161Z,56
2017-09-03T10:10:51.543Z,61
2017-09-03T10:11:52.942Z,101
2017-09-03T10:12:54.344Z,90
2017-09-03T10:13:55.730Z,78
2017-09-03T10:14:57.126Z,140
2017-09-03T10:15:58.506Z,140
2017-09-03T10:16:59.897Z,140
2017-09-03T10:18:01.278Z,140
2017-09-03T10:19:02.664Z,112
2017-09-03T10:20:04.050Z,135
2017-09-03T10:21:06.085Z,151
2017-09-03T10:22:07.472Z,151
2017-09-03T10:23:08.861Z,151
2017-09-03T10:24:10.246Z,151
2017-09-03T10:25:11.638Z,157
2017-09-03T10:26:13.020Z,168
2017-09-03T10:27:14.445Z,168
2017-09-03T10:28:15.838Z,168
2017-09-03T10:29:17.219Z,168
2017-09-03T10:30:18.622Z,174
2017-09-03T10:31:20.012Z,168
2017-09-03T10:32:21.395Z,163
2017-09-03T10:33:22.792Z,67
2017-09-03T10:34:24.178Z,67
2017-09-03T10:35:25.562Z,67
2017-09-03T10:36:26.946Z,73
2017-09-03T10:37:28.352Z,168
2017-09-03T10:38:29.774Z,163
2017-09-03T10:39:31.160Z,174
2017-09-03T10:40:32.540Z,157
2017-09-03T10:41:33.920Z,191
2017-09-03T10:42:35.310Z,196
2017-09-03T10:43:36.699Z,191
2017-09-03T10:44:38.085Z,78
2017-09-03T10:45:39.481Z,84
2017-09-03T10:46:40.869Z,73
2017-09-03T10:47:42.260Z,225
2017-09-03T10:48:43.648Z,225
2017-09-03T10:49:45.076Z,236
2017-09-03T10:50:46.462Z,101
2017-09-03T10:51:47.853Z,253
2017-09-03T10:52:49.243Z,253
2017-09-03T10:53:50.680Z,253
2017-09-03T10:54:52.066Z,253
2017-09-03T10:55:53.456Z,258
2017-09-03T10:56:54.865Z,258
2017-09-03T10:57:56.427Z,253
2017-09-03T10:58:57.816Z,258
2017-09-03T11:00:00.089Z,258
2017-09-03T11:01:01.479Z,270
2017-09-03T11:02:02.899Z,270
2017-09-03T11:03:04.290Z,270
2017-09-03T11:04:05.687Z,270
2017-09-03T11:05:07.097Z,270
2017-09-03T11:06:08.510Z,270
2017-09-03T11:07:09.924Z,275
2017-09-03T11:08:11.314Z,281
2017-09-03T11:09:12.707Z,281
2017-09-03T11:10:14.100Z,286
2017-09-03T11:11:15.491Z,281
2017-09-03T11:12:16.884Z,286
2017-09-03T11:13:18.280Z,292
2017-09-03T11:14:19.715Z,298
2017-09-03T11:15:21.111Z,292
2017-09-03T11:16:22.513Z,292
2017-09-03T11:17:23.902Z,292
2017-09-03T11:18:25.299Z,298
2017-09-03T11:19:26.699Z,303
2017-09-03T11:20:28.092Z,303
2017-09-03T11:21:29.487Z,303
2017-09-03T11:22:30.926Z,298
2017-09-03T11:23:32.318Z,90
2017-09-03T11:24:33.769Z,90
2017-09-03T11:25:35.163Z,67
2017-09-03T11:26:36.551Z,61
2017-09-03T11:27:38.047Z,61
2017-09-03T11:28:39.444Z,174
2017-09-03T11:29:40.877Z,56
2017-09-03T11:30:42.268Z,56
2017-09-03T11:31:43.661Z,61
2017-09-03T11:32:45.058Z,298
2017-09-03T11:33:46.481Z,292
2017-09-03T11:34:47.877Z,298
2017-09-03T11:35:49.272Z,298
2017-09-03T11:36:50.702Z,309
2017-09-03T11:37:52.147Z,303
2017-09-03T11:38:53.541Z,286
2017-09-03T11:39:54.958Z,264
2017-09-03T11:40:56.350Z,253
2017-09-03T11:41:57.749Z,275
2017-09-03T11:42:59.879Z,281
2017-09-03T11:44:01.275Z,320
2017-09-03T11:45:02.666Z,320
2017-09-03T11:46:04.058Z,315
2017-09-03T11:47:05.450Z,331
2017-09-03T11:48:06.857Z,298
2017-09-03T11:49:08.251Z,315
2017-09-03T11:50:09.643Z,309
2017-09-03T11:51:11.139Z,309
2017-09-03T11:52:12.524Z,73
2017-09-03T11:53:13.927Z,73
2017-09-03T11:54:15.320Z,67
2017-09-03T11:55:16.726Z,123
2017-09-03T11:56:18.136Z,123
2017-09-03T11:57:19.558Z,225
2017-09-03T11:58:20.977Z,303
2017-09-03T11:59:22.381Z,84
2017-09-03T12:00:23.780Z,309
2017-09-03T12:01:25.231Z,303
2017-09-03T12:02:26.568Z,73
2017-09-03T12:03:27.964Z,61
2017-09-03T12:04:29.358Z,61
2017-09-03T12:05:30.749Z,78
2017-09-03T12:06:32.140Z,73
2017-09-03T12:07:33.532Z,101
2017-09-03T12:08:34.976Z,298
2017-09-03T12:09:36.368Z,298
2017-09-03T12:10:37.759Z,303
2017-09-03T12:11:39.190Z,309
2017-09-03T12:12:40.584Z,303
2017-09-03T12:13:41.975Z,303
2017-09-03T12:14:43.410Z,298
2017-09-03T12:15:44.924Z,309
2017-09-03T12:16:46.329Z,309
2017-09-03T12:17:47.865Z,309
2017-09-03T12:18:49.274Z,315
2017-09-03T12:19:50.671Z,303
2017-09-03T12:20:52.078Z,298
2017-09-03T12:21:53.471Z,264
2017-09-03T12:22:54.865Z,270
2017-09-03T12:23:56.265Z,292
2017-09-03T12:24:57.681Z,315
2017-09-03T12:25:59.077Z,315
2017-09-03T12:27:00.581Z,320
2017-09-03T12:28:01.991Z,326
2017-09-03T12:29:03.428Z,320
2017-09-03T12:30:04.822Z,320
2017-09-03T12:31:06.330Z,326
2017-09-03T12:32:07.726Z,326
2017-09-03T12:33:09.123Z,326
2017-09-03T12:34:10.568Z,320
2017-09-03T12:35:11.984Z,320
2017-09-03T12:36:13.381Z,326
2017-09-03T12:37:14.784Z,331
2017-09-03T12:38:16.187Z,331
2017-09-03T12:39:17.585Z,331
2017-09-03T12:40:18.996Z,331
2017-09-03T12:41:20.392Z,326
2017-09-03T12:42:21.789Z,118
2017-09-03T12:43:23.188Z,331
2017-09-03T12:44:24.585Z,343
2017-09-03T12:45:25.986Z,331
2017-09-03T12:46:27.382Z,337
2017-09-03T12:47:28.782Z,331
2017-09-03T12:48:30.176Z,331
2017-09-03T12:49:31.574Z,337
2017-09-03T12:50:32.968Z,337
2017-09-03T12:51:34.970Z,343
2017-09-03T12:52:36.726Z,337
2017-09-03T12:53:38.134Z,343
2017-09-03T12:54:39.531Z,343
2017-09-03T12:55:40.927Z,343
2017-09-03T12:56:42.330Z,343
2017-09-03T12:57:43.729Z,348
2017-09-03T12:58:45.127Z,343
2017-09-03T12:59:46.514Z,337
2017-09-03T13:00:47.934Z,337
2017-09-03T13:01:49.353Z,343
2017-09-03T13:02:50.749Z,337
2017-09-03T13:03:52.143Z,343
2017-09-03T13:04:53.554Z,73
2017-09-03T13:05:54.940Z,343
2017-09-03T13:06:56.346Z,343
2017-09-03T13:07:57.791Z,326
2017-09-03T13:08:59.196Z,337
2017-09-03T13:10:00.591Z,337
2017-09-03T13:11:01.990Z,348
2017-09-03T13:12:03.385Z,343
2017-09-03T13:13:04.831Z,343
2017-09-03T13:14:06.226Z,343
2017-09-03T13:15:07.626Z,343
2017-09-03T13:16:09.022Z,348
2017-09-03T13:17:10.422Z,354
2017-09-03T13:18:11.818Z,354
2017-09-03T13:19:13.215Z,354
2017-09-03T13:20:14.608Z,348
2017-09-03T13:21:16.017Z,343
2017-09-03T13:22:17.414Z,84
2017-09-03T13:23:18.831Z,73
2017-09-03T13:24:20.234Z,67
2017-09-03T13:25:21.630Z,61
2017-09-03T13:26:23.062Z,67
2017-09-03T13:27:24.503Z,78
2017-09-03T13:28:25.898Z,348
2017-09-03T13:29:27.322Z,348
2017-09-03T13:30:28.721Z,320
2017-09-03T13:31:30.117Z,84
2017-09-03T13:32:31.513Z,337
2017-09-03T13:33:32.916Z,337
2017-09-03T13:34:34.316Z,343
2017-09-03T13:35:35.717Z,343
2017-09-03T13:36:37.119Z,331
2017-09-03T13:37:38.527Z,331
2017-09-03T13:38:39.924Z,337
2017-09-03T13:39:41.333Z,337
2017-09-03T13:40:42.746Z,326
2017-09-03T13:41:44.139Z,320
2017-09-03T13:42:45.542Z,320
2017-09-03T13:43:46.941Z,315
2017-09-03T13:44:48.342Z,320
2017-09-03T13:45:49.745Z,337
2017-09-03T13:46:51.139Z,298
2017-09-03T13:47:52.539Z,320
2017-09-03T13:48:53.946Z,258
2017-09-03T13:49:55.345Z,78
2017-09-03T13:50:56.760Z,67
2017-09-03T13:51:58.241Z,73
2017-09-03T13:52:59.663Z,326
2017-09-03T13:54:01.060Z,320
2017-09-03T13:55:02.456Z,326
2017-09-03T13:56:03.857Z,326
2017-09-03T13:57:05.278Z,320
2017-09-03T13:58:06.701Z,320
2017-09-03T13:59:08.123Z,320
2017-09-03T14:00:09.526Z,320
2017-09-03T14:01:10.924Z,320
2017-09-03T14:02:12.327Z,320
2017-09-03T14:03:13.723Z,56
2017-09-03T14:04:15.121Z,56
2017-09-03T14:05:16.517Z,56
2017-09-03T14:06:17.937Z,315
2017-09-03T14:07:19.337Z,315
2017-09-03T14:08:21.400Z,309
2017-09-03T14:09:22.799Z,309
2017-09-03T14:10:24.200Z,309
2017-09-03T14:11:25.606Z,303
2017-09-03T14:12:27.017Z,303
2017-09-03T14:13:28.415Z,303
2017-09-03T14:14:29.824Z,303
2017-09-03T14:15:31.219Z,298
2017-09-03T14:16:32.634Z,298
2017-09-03T14:17:34.040Z,292
2017-09-03T14:18:35.454Z,298
2017-09-03T14:19:36.853Z,292
2017-09-03T14:20:39.254Z,286
2017-09-03T14:21:40.656Z,286
2017-09-03T14:22:42.066Z,281
2017-09-03T14:23:43.457Z,292
2017-09-03T14:24:44.859Z,286
2017-09-03T14:25:46.256Z,281
2017-09-03T14:26:47.659Z,286
2017-09-03T14:27:49.058Z,286
2017-09-03T14:28:50.459Z,281
2017-09-03T14:29:51.898Z,292
2017-09-03T14:30:53.303Z,275
2017-09-03T14:31:54.727Z,258
2017-09-03T14:32:56.121Z,213
2017-09-03T14:33:57.532Z,230
2017-09-03T14:34:58.992Z,270
2017-09-03T14:36:00.388Z,270
2017-09-03T14:37:01.784Z,230
2017-09-03T14:38:03.184Z,264
2017-09-03T14:39:04.601Z,264
2017-09-03T14:40:05.998Z,264